createdAt,value
2023-11-20T00:02:00.308Z,75.00
2023-11-20T00:04:26.386Z,75.73
2023-11-20T00:06:52.418Z,75.30
2023-11-20T00:09:19.235Z,75.55
2023-11-20T00:11:45.201Z,75.62
2023-11-20T00:14:11.192Z,75.39
2023-11-20T00:16:37.074Z,75.37
2023-11-20T00:19:05.253Z,76.01
2023-11-20T00:21:32.297Z,76.03
2023-11-20T00:23:58.702Z,75.94
2023-11-20T00:26:24.611Z,76.14
2023-11-20T00:28:54.039Z,76.12
2023-11-20T00:31:19.865Z,76.31
2023-11-20T00:33:45.717Z,76.06
2023-11-20T00:36:12.450Z,76.20
2023-11-20T00:38:38.249Z,76.15
2023-11-20T00:41:05.003Z,76.66
2023-11-20T00:43:32.343Z,76.47
2023-11-20T00:45:58.261Z,76.68
2023-11-20T00:48:24.089Z,77.17
2023-11-20T00:50:49.949Z,77.54
2023-11-20T00:53:15.803Z,77.27
2023-11-20T00:55:41.609Z,77.22
2023-11-20T00:58:07.506Z,77.22
2023-11-20T01:00:33.366Z,76.84
2023-11-20T01:02:59.873Z,77.23
2023-11-20T01:05:25.777Z,76.47
2023-11-20T01:07:51.689Z,76.50
2023-11-20T01:10:17.521Z,75.93
2023-11-20T01:12:43.430Z,75.79
2023-11-20T01:15:09.826Z,75.72
2023-11-20T01:17:35.734Z,75.08
2023-11-20T01:20:01.700Z,75.28
2023-11-20T01:22:27.592Z,75.26
2023-11-20T01:24:53.454Z,75.56
2023-11-20T01:27:19.290Z,75.43
2023-11-20T01:29:45.091Z,75.39
2023-11-20T01:32:10.898Z,75.82
2023-11-20T01:34:36.730Z,75.42
2023-11-20T01:37:02.730Z,75.42
2023-11-20T01:39:28.699Z,75.41
2023-11-20T01:41:54.538Z,75.12
2023-11-20T01:44:21.145Z,75.05
2023-11-20T01:46:47.090Z,75.60
2023-11-20T01:49:13.021Z,75.05
2023-11-20T01:51:39.090Z,75.28
2023-11-20T01:54:05.642Z,75.50
2023-11-20T01:56:33.029Z,75.32
2023-11-20T01:59:06.950Z,75.36
2023-11-20T02:01:35.915Z,75.07
2023-11-20T02:04:04.368Z,74.73
2023-11-20T02:06:30.991Z,74.45
2023-11-20T02:08:56.988Z,75.00
2023-11-20T02:11:24.271Z,75.48
2023-11-20T02:13:53.657Z,75.06
2023-11-20T02:16:19.639Z,75.07
2023-11-20T02:18:45.465Z,75.42
2023-11-20T02:21:11.317Z,74.73
2023-11-20T02:23:37.184Z,74.85
2023-11-20T02:26:34.092Z,74.48
2023-11-20T02:29:24.648Z,74.67
2023-11-20T02:31:50.520Z,74.68
2023-11-20T02:34:16.982Z,74.28
2023-11-20T02:36:42.966Z,74.49
2023-11-20T02:39:09.869Z,73.96
2023-11-20T02:41:38.918Z,74.31
2023-11-20T02:44:05.155Z,74.38
2023-11-20T02:46:31.050Z,74.59
2023-11-20T02:48:57.132Z,74.38
2023-11-20T02:51:22.963Z,74.29
2023-11-20T02:53:48.805Z,73.94
2023-11-20T02:56:14.631Z,74.22
2023-11-20T02:58:40.439Z,73.79
2023-11-20T03:01:09.792Z,74.19
2023-11-20T03:03:39.818Z,74.50
2023-11-20T03:06:06.917Z,74.47
2023-11-20T03:08:32.770Z,75.11
2023-11-20T03:10:58.596Z,74.36
2023-11-20T03:13:24.518Z,74.99
2023-11-20T03:15:51.226Z,74.86
2023-11-20T03:18:17.859Z,75.00
2023-11-20T03:20:43.706Z,75.27
2023-11-20T03:23:11.445Z,75.17
2023-11-20T03:25:37.345Z,75.07
2023-11-20T03:28:04.245Z,75.34
2023-11-20T03:30:32.757Z,76.16
2023-11-20T03:32:59.162Z,75.96
2023-11-20T03:35:25.257Z,75.88
2023-11-20T03:37:51.186Z,76.36
2023-11-20T03:40:17.223Z,76.26
2023-11-20T03:42:43.234Z,76.96
2023-11-20T03:45:09.693Z,76.90
2023-11-20T03:47:35.631Z,76.77
2023-11-20T03:50:03.490Z,76.34
2023-11-20T03:52:29.455Z,76.42
2023-11-20T03:54:55.312Z,76.46
2023-11-20T03:57:21.302Z,75.99
2023-11-20T03:59:47.117Z,76.56
2023-11-20T04:02:12.902Z,75.94
2023-11-20T04:04:39.025Z,76.34
2023-11-20T04:07:05.049Z,76.22
2023-11-20T04:09:30.919Z,76.27
2023-11-20T04:11:56.713Z,75.89
2023-11-20T04:14:22.533Z,75.43
2023-11-20T04:16:48.826Z,75.61
2023-11-20T04:19:15.027Z,75.59
2023-11-20T04:21:41.966Z,75.05
2023-11-20T04:24:08.518Z,75.27
2023-11-20T04:26:34.391Z,74.65
2023-11-20T04:29:00.304Z,74.73
2023-11-20T04:31:26.174Z,74.78
2023-11-20T04:33:52.111Z,74.72
2023-11-20T04:36:18.065Z,75.17
2023-11-20T04:38:43.965Z,75.26
2023-11-20T04:41:11.265Z,75.55
2023-11-20T04:43:37.181Z,75.85
2023-11-20T04:46:03.031Z,75.60
2023-11-20T04:48:28.894Z,76.26
2023-11-20T04:50:54.749Z,76.10
2023-11-20T04:53:22.209Z,75.69
2023-11-20T04:55:48.043Z,75.99
2023-11-20T04:58:13.932Z,75.77
2023-11-20T05:00:40.081Z,75.76
2023-11-20T05:03:05.971Z,75.65
2023-11-20T05:05:31.866Z,75.74
2023-11-20T05:07:57.746Z,75.59
2023-11-20T05:10:23.557Z,75.76
2023-11-20T05:12:49.796Z,75.89
2023-11-20T05:15:15.732Z,75.48
2023-11-20T05:17:41.591Z,75.56
2023-11-20T05:20:08.564Z,76.02
2023-11-20T05:22:34.404Z,75.42
2023-11-20T05:25:00.727Z,75.55
2023-11-20T05:27:26.592Z,75.27
2023-11-20T05:29:53.322Z,74.99
2023-11-20T05:32:19.122Z,74.85
2023-11-20T05:34:44.937Z,75.23
2023-11-20T05:37:10.855Z,75.45
2023-11-20T05:39:37.003Z,75.73
2023-11-20T05:42:03.102Z,75.74
2023-11-20T05:44:29.231Z,75.53
2023-11-20T05:46:55.301Z,74.84
2023-11-20T05:49:21.177Z,75.19
2023-11-20T05:51:47.120Z,75.10
2023-11-20T05:54:13.069Z,74.84
2023-11-20T05:56:38.871Z,74.73
2023-11-20T05:59:05.254Z,74.98
2023-11-20T06:01:41.230Z,75.19
2023-11-20T06:04:09.133Z,74.93
2023-11-20T06:06:36.696Z,74.91
2023-11-20T06:09:04.818Z,75.22
2023-11-20T06:11:35.258Z,75.37
2023-11-20T06:14:01.755Z,75.65
2023-11-20T06:16:27.734Z,75.85
2023-11-20T06:18:53.765Z,75.16
2023-11-20T06:21:19.674Z,75.36
2023-11-20T06:23:45.726Z,75.30
2023-11-20T06:26:11.910Z,75.79
2023-11-20T06:28:37.792Z,75.64
2023-11-20T06:31:03.999Z,75.74
2023-11-20T06:33:29.869Z,75.28
2023-11-20T06:35:55.672Z,75.84
2023-11-20T06:38:21.948Z,76.75
2023-11-20T06:40:47.891Z,77.67
2023-11-20T06:43:13.878Z,77.42
2023-11-20T06:45:40.169Z,77.25
2023-11-20T06:48:07.688Z,77.12
2023-11-20T06:50:33.477Z,77.08
2023-11-20T06:53:00.176Z,76.59
2023-11-20T06:55:26.475Z,76.46
2023-11-20T06:57:52.594Z,76.23
2023-11-20T07:00:19.166Z,76.71
2023-11-20T07:02:45.216Z,77.38
2023-11-20T07:05:15.370Z,77.72
2023-11-20T07:07:51.069Z,77.94
2023-11-20T07:10:23.734Z,78.21
2023-11-20T07:12:54.646Z,78.82
2023-11-20T07:15:21.586Z,79.20
2023-11-20T07:17:48.279Z,79.52
2023-11-20T07:20:14.892Z,79.81
2023-11-20T07:22:40.769Z,79.83
2023-11-20T07:25:08.049Z,79.54
2023-11-20T07:27:37.382Z,79.77
2023-11-20T07:30:07.486Z,79.94
2023-11-20T07:32:35.710Z,80.11
2023-11-20T07:35:03.864Z,80.34
2023-11-20T07:37:30.632Z,80.21
2023-11-20T07:39:56.622Z,80.41
2023-11-20T07:42:22.684Z,80.33
2023-11-20T07:44:49.003Z,80.56
2023-11-20T07:47:14.939Z,79.94
2023-11-20T07:49:40.851Z,79.50
2023-11-20T07:52:06.712Z,79.43
2023-11-20T07:54:32.605Z,79.34
2023-11-20T07:56:58.426Z,80.25
2023-11-20T07:59:24.269Z,79.74
2023-11-20T08:01:52.007Z,80.00
2023-11-20T08:04:17.934Z,79.71
2023-11-20T08:06:46.386Z,80.08
2023-11-20T08:09:12.501Z,79.99
2023-11-20T08:11:38.417Z,79.57
2023-11-20T08:14:04.351Z,79.01
2023-11-20T08:16:30.304Z,78.75
2023-11-20T08:18:58.548Z,79.03
2023-11-20T08:21:24.949Z,78.26
2023-11-20T08:23:51.454Z,79.21
2023-11-20T08:26:17.605Z,79.32
2023-11-20T08:28:46.574Z,78.85
2023-11-20T08:31:12.501Z,78.77
2023-11-20T08:33:38.346Z,78.56
2023-11-20T08:36:04.726Z,79.08
2023-11-20T08:38:30.598Z,79.03
2023-11-20T08:40:57.613Z,78.90
2023-11-20T08:43:24.045Z,79.30
2023-11-20T08:45:53.302Z,79.04
2023-11-20T08:48:23.223Z,79.75
2023-11-20T08:50:49.212Z,79.56
2023-11-20T08:53:15.084Z,79.32
2023-11-20T08:55:40.903Z,80.07
2023-11-20T08:58:08.774Z,80.35
2023-11-20T09:00:35.465Z,80.26
2023-11-20T09:03:01.353Z,80.91
2023-11-20T09:05:27.810Z,80.24
2023-11-20T09:07:54.915Z,80.20
2023-11-20T09:10:23.568Z,80.42
2023-11-20T09:12:52.265Z,80.18
2023-11-20T09:15:19.357Z,80.47
2023-11-20T09:17:45.474Z,80.63
2023-11-20T09:20:13.136Z,80.61
2023-11-20T09:22:40.092Z,80.83
2023-11-20T09:25:06.669Z,81.14
2023-11-20T09:27:33.308Z,80.33
2023-11-20T09:29:59.554Z,80.62
2023-11-20T09:32:27.464Z,80.37
2023-11-20T09:34:53.288Z,79.52
2023-11-20T09:37:19.088Z,79.88
2023-11-20T09:39:46.724Z,79.49
2023-11-20T09:42:15.025Z,79.50
2023-11-20T09:44:44.229Z,79.41
2023-11-20T09:47:11.780Z,79.11
2023-11-20T09:49:40.937Z,78.30
2023-11-20T09:52:08.376Z,78.11
2023-11-20T09:54:41.598Z,78.17
2023-11-20T09:57:09.976Z,77.23
2023-11-20T09:59:36.703Z,77.03
2023-11-20T10:02:03.329Z,76.82
2023-11-20T10:04:32.381Z,76.82
2023-11-20T10:07:02.518Z,75.84
2023-11-20T10:09:31.435Z,76.16
2023-11-20T10:11:57.795Z,75.26
2023-11-20T10:14:23.814Z,75.33
2023-11-20T10:16:51.928Z,74.85
2023-11-20T10:19:18.670Z,73.28
2023-11-20T10:21:47.207Z,73.25
2023-11-20T10:24:17.055Z,72.44
2023-11-20T10:26:43.194Z,71.66
2023-11-20T10:29:10.331Z,71.46
2023-11-20T10:31:47.117Z,71.40
2023-11-20T10:34:14.382Z,71.36
2023-11-20T10:36:40.815Z,71.67
2023-11-20T10:39:12.382Z,70.74
2023-11-20T10:41:42.508Z,71.12
2023-11-20T10:44:08.772Z,70.55
2023-11-20T10:46:35.292Z,69.82
2023-11-20T10:49:07.311Z,70.16
2023-11-20T10:51:34.804Z,70.67
2023-11-20T10:57:28.710Z,68.91
2023-11-20T11:00:29.646Z,67.89
2023-11-20T11:03:16.815Z,68.16
2023-11-20T11:06:31.914Z,67.86
2023-11-20T11:09:03.125Z,67.75
2023-11-20T11:14:29.670Z,68.22
2023-11-20T11:17:01.922Z,68.81
2023-11-20T11:19:37.903Z,70.06
2023-11-20T11:22:11.246Z,70.04
2023-11-20T11:24:40.540Z,70.71
2023-11-20T11:27:36.846Z,71.07
2023-11-20T11:30:07.865Z,71.14
2023-11-20T11:32:58.912Z,70.92
2023-11-20T11:35:46.542Z,70.80
2023-11-20T11:38:41.632Z,70.85
2023-11-20T11:41:35.531Z,70.04
2023-11-20T11:44:14.974Z,70.49
2023-11-20T11:46:43.815Z,69.87
2023-11-20T11:49:23.163Z,70.27
2023-11-20T11:51:53.792Z,70.16
2023-11-20T11:54:20.348Z,70.11
2023-11-20T11:56:46.105Z,70.86
2023-11-20T11:59:19.995Z,70.68
2023-11-20T12:01:47.647Z,70.40
2023-11-20T12:04:52.079Z,69.69
2023-11-20T12:07:40.579Z,70.22
2023-11-20T12:10:11.851Z,70.40
2023-11-20T12:13:06.943Z,69.95
2023-11-20T12:15:40.231Z,69.84
2023-11-20T12:18:12.074Z,69.59
2023-11-20T12:21:00.257Z,69.34
2023-11-20T12:23:43.085Z,68.87
2023-11-20T12:26:11.616Z,69.20
2023-11-20T12:28:38.561Z,68.83
2023-11-20T12:31:06.878Z,68.41
2023-11-20T12:33:33.867Z,68.97
2023-11-20T12:36:00.743Z,68.68
2023-11-20T12:38:34.138Z,68.58
2023-11-20T12:41:03.823Z,68.63
2023-11-20T12:43:31.428Z,68.35
2023-11-20T12:45:58.119Z,69.06
2023-11-20T12:48:24.129Z,69.01
2023-11-20T12:50:50.868Z,68.55
2023-11-20T12:53:17.911Z,68.38
2023-11-20T12:55:47.500Z,68.16
2023-11-20T12:58:13.539Z,68.67
2023-11-20T13:00:43.424Z,69.65
2023-11-20T13:03:19.609Z,69.70
2023-11-20T13:05:53.984Z,70.38
2023-11-20T13:08:24.321Z,70.33
2023-11-20T13:10:55.354Z,70.10
2023-11-20T13:13:23.117Z,69.80
2023-11-20T13:15:55.655Z,69.75
2023-11-20T13:18:27.690Z,69.21
2023-11-20T13:20:54.433Z,68.07
2023-11-20T13:23:25.786Z,67.29
2023-11-20T13:26:05.788Z,65.28
2023-11-20T13:28:38.442Z,64.48
2023-11-20T13:31:09.402Z,63.93
2023-11-20T13:33:42.385Z,63.62
2023-11-20T13:36:09.755Z,64.29
2023-11-20T13:38:36.460Z,64.19
2023-11-20T13:41:02.939Z,64.12
2023-11-20T13:43:29.546Z,64.46
2023-11-20T13:45:56.639Z,63.90
2023-11-20T13:48:23.633Z,65.24
2023-11-20T13:50:49.626Z,63.10
2023-11-20T13:53:16.390Z,63.10
2023-11-20T13:55:45.123Z,62.66
2023-11-20T13:58:13.156Z,62.85
2023-11-20T14:00:38.996Z,62.66
2023-11-20T14:03:04.964Z,63.76
2023-11-20T14:05:30.912Z,63.84
2023-11-20T14:07:57.196Z,64.07
2023-11-20T14:10:23.353Z,62.87
2023-11-20T14:12:51.946Z,63.31
2023-11-20T14:15:17.852Z,64.16
2023-11-20T14:17:43.898Z,64.83
2023-11-20T14:20:13.294Z,64.45
2023-11-20T14:22:42.076Z,63.12
2023-11-20T14:25:10.733Z,62.67
2023-11-20T14:27:38.298Z,63.04
2023-11-20T14:30:09.361Z,63.42
2023-11-20T14:32:35.226Z,65.20
2023-11-20T14:35:01.113Z,65.43
2023-11-20T14:37:26.975Z,65.14
2023-11-20T14:39:53.738Z,64.46
2023-11-20T14:42:19.591Z,64.44
2023-11-20T14:44:45.452Z,64.59
2023-11-20T14:47:11.298Z,64.29
2023-11-20T14:49:39.784Z,64.49
2023-11-20T14:52:06.406Z,63.75
2023-11-20T14:54:32.271Z,63.94
2023-11-20T14:56:58.151Z,63.46
2023-11-20T14:59:23.991Z,64.27
2023-11-20T15:01:51.356Z,63.22
2023-11-20T15:04:17.854Z,63.31
2023-11-20T15:06:44.130Z,63.48
2023-11-20T15:09:09.955Z,63.32
2023-11-20T15:11:35.803Z,64.40
2023-11-20T15:14:01.646Z,63.94
2023-11-20T15:16:27.639Z,64.24
2023-11-20T15:18:54.311Z,64.16
2023-11-20T15:21:20.136Z,65.22
2023-11-20T15:23:45.954Z,65.61
2023-11-20T15:26:12.242Z,66.06
2023-11-20T15:28:38.457Z,66.85
2023-11-20T15:31:05.521Z,67.50
2023-11-20T15:33:31.311Z,67.76
2023-11-20T15:35:57.161Z,68.31
2023-11-20T15:38:22.960Z,68.33
2023-11-20T15:40:48.892Z,69.25
2023-11-20T15:43:14.867Z,69.28
2023-11-20T15:45:40.774Z,68.94
2023-11-20T15:48:06.753Z,69.93
2023-11-20T15:50:33.686Z,70.48
2023-11-20T15:52:59.527Z,69.88
2023-11-20T15:55:25.355Z,70.38
2023-11-20T15:57:53.384Z,70.75
2023-11-20T16:00:19.556Z,70.13
2023-11-20T16:02:45.501Z,70.89
2023-11-20T16:05:11.426Z,70.44
2023-11-20T16:07:39.679Z,70.78
2023-11-20T16:10:12.226Z,71.19
2023-11-20T16:12:40.352Z,71.07
2023-11-20T16:15:08.997Z,71.44
2023-11-20T16:17:36.028Z,71.38
2023-11-20T16:20:02.416Z,71.68
2023-11-20T16:22:28.380Z,72.01
2023-11-20T16:24:54.209Z,71.87
2023-11-20T16:27:20.241Z,72.19
2023-11-20T16:29:46.589Z,72.12
2023-11-20T16:32:12.709Z,71.89
2023-11-20T16:34:38.607Z,71.48
2023-11-20T16:37:05.824Z,71.26
2023-11-20T16:39:32.054Z,71.16
2023-11-20T16:41:57.910Z,71.28
2023-11-20T16:44:25.155Z,71.73
2023-11-20T16:46:53.046Z,71.88
2023-11-20T16:49:19.207Z,71.96
2023-11-20T16:51:45.229Z,71.67
2023-11-20T16:54:11.052Z,71.82
2023-11-20T16:56:36.945Z,72.32
2023-11-20T16:59:03.249Z,72.39
2023-11-20T17:01:29.196Z,72.54
2023-11-20T17:03:55.209Z,72.27
2023-11-20T17:06:21.910Z,72.79
2023-11-20T17:08:49.297Z,72.34
2023-11-20T17:11:15.953Z,72.51
2023-11-20T17:13:42.308Z,72.75
2023-11-20T17:16:09.944Z,73.15
2023-11-20T17:18:37.902Z,72.89
2023-11-20T17:21:04.423Z,73.14
2023-11-20T17:23:30.294Z,73.12
2023-11-20T17:25:56.149Z,73.36
2023-11-20T17:28:22.108Z,73.52
2023-11-20T17:30:47.980Z,73.25
2023-11-20T17:33:13.912Z,73.60
2023-11-20T17:35:39.869Z,73.12
2023-11-20T17:38:05.927Z,73.45
2023-11-20T17:40:32.003Z,73.31
2023-11-20T17:42:57.847Z,73.43
2023-11-20T17:45:24.010Z,73.65
2023-11-20T17:47:49.819Z,73.68
2023-11-20T17:50:16.916Z,73.85
2023-11-20T17:52:42.834Z,73.49
2023-11-20T17:55:09.350Z,73.09
2023-11-20T17:57:39.671Z,73.63
2023-11-20T18:00:10.489Z,74.26
2023-11-20T18:02:36.416Z,74.32
2023-11-20T18:05:04.220Z,74.42
2023-11-20T18:07:30.342Z,74.00
2023-11-20T18:09:56.400Z,74.04
2023-11-20T18:12:22.400Z,74.26
2023-11-20T18:14:48.271Z,74.43
2023-11-20T18:17:14.125Z,74.37
2023-11-20T18:19:39.929Z,74.16
2023-11-20T18:22:05.758Z,74.10
2023-11-20T18:24:31.755Z,74.44
2023-11-20T18:26:57.612Z,74.27
2023-11-20T18:29:23.755Z,74.06
2023-11-20T18:31:49.798Z,73.71
2023-11-20T18:34:15.744Z,73.49
2023-11-20T18:36:42.442Z,73.96
2023-11-20T18:39:08.992Z,73.56
2023-11-20T18:41:34.997Z,73.43
2023-11-20T18:44:01.517Z,73.01
2023-11-20T18:46:28.117Z,72.95
2023-11-20T18:48:53.970Z,73.27
2023-11-20T18:51:19.799Z,74.02
2023-11-20T18:53:48.460Z,73.74
2023-11-20T18:56:14.396Z,73.92
2023-11-20T18:58:41.400Z,73.99
2023-11-20T19:01:07.310Z,73.95
2023-11-20T19:03:33.231Z,73.84
2023-11-20T19:05:59.102Z,73.77
2023-11-20T19:08:25.761Z,74.16
2023-11-20T19:10:51.991Z,74.04
2023-11-20T19:13:17.911Z,74.75
2023-11-20T19:15:43.882Z,74.93
2023-11-20T19:18:10.697Z,74.78
2023-11-20T19:20:36.576Z,74.90
2023-11-20T19:23:02.414Z,75.01
2023-11-20T19:25:28.235Z,74.83
2023-11-20T19:27:54.697Z,74.86
2023-11-20T19:30:22.587Z,74.70
2023-11-20T19:32:49.425Z,75.40
2023-11-20T19:35:16.709Z,75.04
2023-11-20T19:37:46.422Z,75.37
2023-11-20T19:40:14.017Z,75.56
2023-11-20T19:42:42.097Z,75.22
2023-11-20T19:45:09.848Z,75.46
2023-11-20T19:47:36.675Z,75.06
2023-11-20T19:50:04.467Z,74.80
2023-11-20T19:52:30.396Z,74.53
2023-11-20T19:54:57.052Z,74.26
2023-11-20T19:57:22.999Z,73.83
2023-11-20T19:59:48.797Z,73.77
2023-11-20T20:02:14.905Z,74.28
2023-11-20T20:04:41.218Z,73.78
2023-11-20T20:07:07.133Z,73.78
2023-11-20T20:09:36.561Z,74.44
2023-11-20T20:12:03.118Z,74.53
2023-11-20T20:14:29.000Z,74.42
2023-11-20T20:16:59.999Z,74.66
2023-11-20T20:19:26.989Z,75.10
2023-11-20T20:21:56.118Z,75.08
2023-11-20T20:24:21.831Z,75.06
2023-11-20T20:26:47.631Z,74.48
2023-11-20T20:29:13.583Z,74.59
2023-11-20T20:31:39.591Z,74.51
2023-11-20T20:34:06.058Z,73.99
2023-11-20T20:36:32.033Z,74.83
2023-11-20T20:39:00.217Z,74.50
2023-11-20T20:41:26.020Z,74.00
2023-11-20T20:43:52.224Z,74.71
2023-11-20T20:46:18.204Z,74.88
2023-11-20T20:48:44.215Z,74.72
2023-11-20T20:51:10.081Z,74.58
2023-11-20T20:53:36.621Z,74.42
2023-11-20T20:56:05.536Z,75.52
2023-11-20T20:58:32.655Z,75.19
2023-11-20T21:00:58.735Z,74.59
2023-11-20T21:03:24.646Z,75.10
2023-11-20T21:05:51.390Z,75.62
2023-11-20T21:08:17.241Z,75.79
2023-11-20T21:10:43.145Z,75.37
2023-11-20T21:13:09.524Z,75.01
2023-11-20T21:15:35.446Z,75.76
2023-11-20T21:18:02.039Z,75.33
2023-11-20T21:20:27.835Z,75.09
2023-11-20T21:22:53.645Z,74.87
2023-11-20T21:25:21.384Z,75.24
2023-11-20T21:27:48.168Z,75.63
2023-11-20T21:30:14.140Z,75.50
2023-11-20T21:32:40.032Z,75.11
2023-11-20T21:35:06.501Z,75.38
2023-11-20T21:37:32.706Z,75.43
2023-11-20T21:39:58.655Z,75.09
2023-11-20T21:42:24.454Z,75.29
2023-11-20T21:44:52.208Z,75.57
2023-11-20T21:47:18.145Z,74.93
2023-11-20T21:49:44.005Z,75.19
2023-11-20T21:52:09.855Z,75.29
2023-11-20T21:54:35.689Z,74.77
2023-11-20T21:57:01.498Z,74.75
2023-11-20T21:59:28.112Z,74.69
2023-11-20T22:01:54.230Z,74.68
2023-11-20T22:04:20.120Z,74.97
2023-11-20T22:06:46.294Z,74.50
2023-11-20T22:09:13.949Z,75.12
2023-11-20T22:11:40.761Z,74.94
2023-11-20T22:14:06.572Z,75.65
2023-11-20T22:16:32.679Z,75.06
2023-11-20T22:18:58.544Z,75.37
2023-11-20T22:21:24.365Z,75.86
2023-11-20T22:23:50.205Z,75.52
2023-11-20T22:26:15.997Z,75.66
2023-11-20T22:28:41.876Z,75.42
2023-11-20T22:31:08.279Z,75.51
2023-11-20T22:33:34.164Z,76.07
2023-11-20T22:36:10.236Z,75.89
2023-11-20T22:38:36.081Z,76.11
2023-11-20T22:41:02.227Z,75.78
2023-11-20T22:43:29.501Z,75.39
2023-11-20T22:45:55.375Z,75.45
2023-11-20T22:48:21.244Z,75.68
2023-11-20T22:50:47.059Z,75.46
2023-11-20T22:53:12.894Z,75.72
2023-11-20T22:55:38.730Z,75.93
2023-11-20T22:58:04.796Z,75.65
2023-11-20T23:00:37.401Z,75.60
2023-11-20T23:03:04.111Z,75.54
2023-11-20T23:05:29.987Z,75.34
2023-11-20T23:07:55.786Z,75.33
2023-11-20T23:10:22.592Z,75.10
2023-11-20T23:12:48.389Z,75.33
2023-11-20T23:15:15.182Z,76.02
2023-11-20T23:17:42.489Z,75.69
2023-11-20T23:20:16.399Z,75.84
2023-11-20T23:22:45.455Z,75.47
2023-11-20T23:25:16.633Z,75.08
2023-11-20T23:27:45.785Z,75.79
2023-11-20T23:30:12.343Z,75.76
2023-11-20T23:32:38.200Z,75.71
2023-11-20T23:35:05.253Z,75.06
2023-11-20T23:37:31.170Z,75.19
2023-11-20T23:39:56.988Z,75.44
2023-11-20T23:42:23.434Z,75.05
2023-11-20T23:44:49.276Z,75.11
2023-11-20T23:47:17.878Z,75.40
2023-11-20T23:49:43.738Z,75.69
2023-11-20T23:52:09.637Z,76.33
2023-11-20T23:54:36.199Z,75.15
2023-11-20T23:57:02.918Z,75.75
2023-11-20T23:59:29.191Z,75.49
